createdAt,value
2023-04-22T00:01:15.434Z,9.20
2023-04-22T00:03:44.720Z,9.16
2023-04-22T00:06:12.301Z,9.05
2023-04-22T00:08:39.248Z,8.97
2023-04-22T00:11:06.636Z,8.93
2023-04-22T00:13:33.632Z,8.95
2023-04-22T00:16:01.012Z,8.79
2023-04-22T00:18:28.145Z,8.94
2023-04-22T00:20:55.116Z,8.89
2023-04-22T00:23:22.299Z,8.83
2023-04-22T00:25:49.258Z,8.85
2023-04-22T00:28:16.139Z,8.82
2023-04-22T00:30:43.156Z,8.73
2023-04-22T00:33:10.133Z,8.68
2023-04-22T00:35:37.052Z,8.74
2023-04-22T00:38:04.222Z,8.72
2023-04-22T00:40:31.254Z,8.69
2023-04-22T00:42:59.820Z,8.61
2023-04-22T00:45:27.097Z,8.18
2023-04-22T00:47:54.954Z,8.43
2023-04-22T00:50:21.939Z,8.41
2023-04-22T00:52:50.723Z,8.49
2023-04-22T00:55:17.899Z,8.41
2023-04-22T00:57:44.927Z,8.40
2023-04-22T01:00:12.377Z,8.41
2023-04-22T01:02:58.553Z,8.20
2023-04-22T01:05:26.021Z,8.32
2023-04-22T01:07:52.992Z,8.33
2023-04-22T01:10:20.542Z,8.32
2023-04-22T01:12:47.643Z,8.33
2023-04-22T01:15:14.733Z,8.27
2023-04-22T01:17:41.919Z,8.31
2023-04-22T01:20:12.192Z,8.30
2023-04-22T01:22:45.705Z,8.29
2023-04-22T01:25:13.081Z,8.28
2023-04-22T01:27:41.159Z,8.16
2023-04-22T01:30:09.241Z,8.20
2023-04-22T01:32:36.591Z,8.07
2023-04-22T01:35:03.996Z,8.23
2023-04-22T01:37:31.181Z,8.24
2023-04-22T01:39:59.315Z,8.27
2023-04-22T01:42:26.599Z,8.30
2023-04-22T01:44:54.434Z,8.28
2023-04-22T01:47:21.552Z,8.20
2023-04-22T01:49:48.724Z,8.42
2023-04-22T01:52:17.547Z,8.45
2023-04-22T01:54:45.063Z,8.59
2023-04-22T01:57:14.270Z,8.65
2023-04-22T01:59:42.099Z,8.73
2023-04-22T02:02:09.531Z,8.72
2023-04-22T02:04:36.749Z,8.83
2023-04-22T02:07:03.896Z,8.86
2023-04-22T02:09:33.922Z,8.70
2023-04-22T02:12:01.906Z,8.91
2023-04-22T02:14:29.047Z,8.86
2023-04-22T02:16:56.341Z,8.85
2023-04-22T02:19:23.281Z,8.92
2023-04-22T02:21:50.771Z,8.91
2023-04-22T02:24:18.214Z,9.04
2023-04-22T02:26:46.108Z,9.14
2023-04-22T02:29:13.912Z,9.18
2023-04-22T02:31:40.898Z,9.21
2023-04-22T02:34:08.040Z,9.21
2023-04-22T02:36:35.069Z,9.22
2023-04-22T02:39:06.220Z,9.06
2023-04-22T02:41:35.505Z,9.13
2023-04-22T02:44:02.936Z,9.11
2023-04-22T02:46:30.086Z,9.00
2023-04-22T02:48:57.036Z,8.93
2023-04-22T02:51:24.526Z,8.71
2023-04-22T02:53:51.553Z,8.65
2023-04-22T02:56:18.942Z,8.78
2023-04-22T02:58:45.893Z,8.85
2023-04-22T03:01:13.064Z,8.91
2023-04-22T03:03:40.433Z,8.95
2023-04-22T03:06:10.606Z,8.91
2023-04-22T03:08:37.736Z,8.90
2023-04-22T03:11:05.611Z,8.68
2023-04-22T03:13:32.495Z,8.65
2023-04-22T03:15:59.615Z,8.76
2023-04-22T03:18:26.880Z,8.51
2023-04-22T03:20:54.494Z,8.65
2023-04-22T03:23:21.556Z,8.62
2023-04-22T03:25:48.789Z,8.57
2023-04-22T03:28:15.806Z,8.46
2023-04-22T03:30:42.902Z,8.46
2023-04-22T03:33:09.920Z,8.43
2023-04-22T03:35:42.277Z,8.40
2023-04-22T03:38:11.642Z,8.37
2023-04-22T03:40:38.585Z,8.36
2023-04-22T03:43:16.047Z,8.34
2023-04-22T03:45:51.682Z,8.20
2023-04-22T03:48:23.416Z,8.34
2023-04-22T03:50:52.830Z,8.31
2023-04-22T03:53:20.044Z,8.37
2023-04-22T03:55:47.301Z,8.37
2023-04-22T03:58:15.890Z,8.41
2023-04-22T04:00:43.290Z,8.47
2023-04-22T04:03:15.979Z,8.53
2023-04-22T04:05:46.142Z,8.54
2023-04-22T04:08:13.122Z,8.54
2023-04-22T04:10:41.306Z,8.53
2023-04-22T04:13:08.458Z,8.42
2023-04-22T04:15:46.066Z,8.62
2023-04-22T04:18:16.191Z,8.65
2023-04-22T04:20:43.481Z,8.75
2023-04-22T04:23:10.425Z,8.79
2023-04-22T04:25:38.890Z,8.94
2023-04-22T04:28:11.403Z,8.85
2023-04-22T04:30:41.740Z,8.86
2023-04-22T04:33:10.276Z,8.87
2023-04-22T04:35:39.397Z,9.04
2023-04-22T04:38:08.334Z,9.17
2023-04-22T04:40:37.256Z,9.32
2023-04-22T04:43:16.021Z,9.44
2023-04-22T04:45:55.070Z,9.51
2023-04-22T04:48:28.718Z,9.33
2023-04-22T04:51:04.409Z,9.44
2023-04-22T04:53:34.597Z,9.50
2023-04-22T04:56:02.493Z,9.77
2023-04-22T04:58:30.749Z,9.80
2023-04-22T05:01:10.284Z,9.76
2023-04-22T05:03:37.644Z,9.27
2023-04-22T05:06:06.002Z,9.81
2023-04-22T05:08:34.844Z,9.98
2023-04-22T05:11:13.983Z,10.01
2023-04-22T05:13:45.988Z,9.81
2023-04-22T05:16:19.461Z,10.09
2023-04-22T05:18:46.694Z,10.40
2023-04-22T05:21:16.843Z,10.53
2023-04-22T05:23:45.504Z,10.71
2023-04-22T05:26:13.536Z,10.88
2023-04-22T05:28:42.725Z,10.64
2023-04-22T05:31:24.898Z,10.50
2023-04-22T05:33:55.083Z,10.62
2023-04-22T05:36:24.066Z,10.47
2023-04-22T05:38:50.981Z,10.73
2023-04-22T05:41:17.955Z,10.96
2023-04-22T05:43:46.709Z,11.15
2023-04-22T05:46:17.524Z,11.26
2023-04-22T05:48:46.849Z,11.27
2023-04-22T05:51:39.364Z,11.16
2023-04-22T05:54:07.258Z,11.23
2023-04-22T05:56:34.380Z,11.14
2023-04-22T05:59:01.509Z,11.00
2023-04-22T06:01:28.659Z,11.27
2023-04-22T06:04:00.433Z,11.25
2023-04-22T06:06:27.810Z,11.48
2023-04-22T06:08:54.753Z,11.59
2023-04-22T06:11:22.125Z,11.59
2023-04-22T06:13:49.092Z,11.60
2023-04-22T06:16:16.941Z,11.76
2023-04-22T06:18:44.018Z,11.88
2023-04-22T06:21:12.443Z,11.89
2023-04-22T06:23:40.342Z,11.67
2023-04-22T06:26:07.361Z,12.03
2023-04-22T06:28:35.980Z,12.29
2023-04-22T06:31:08.061Z,12.55
2023-04-22T06:33:35.883Z,12.63
2023-04-22T06:36:04.928Z,12.38
2023-04-22T06:38:32.749Z,12.97
2023-04-22T06:41:23.023Z,12.95
2023-04-22T06:43:52.408Z,12.91
2023-04-22T06:46:39.147Z,12.94
2023-04-22T06:49:08.799Z,12.96
2023-04-22T06:51:56.308Z,12.98
2023-04-22T06:54:24.051Z,12.97
2023-04-22T06:56:52.590Z,12.88
2023-04-22T06:59:19.564Z,12.89
2023-04-22T07:01:47.396Z,13.12
2023-04-22T07:04:14.713Z,13.02
2023-04-22T07:06:43.310Z,13.37
2023-04-22T07:09:10.688Z,13.40
2023-04-22T07:11:38.821Z,13.49
2023-04-22T07:14:10.987Z,13.72
2023-04-22T07:16:39.046Z,13.96
2023-04-22T07:19:06.218Z,13.94
2023-04-22T07:21:33.871Z,14.00
2023-04-22T07:24:00.934Z,14.03
2023-04-22T07:26:27.924Z,14.03
2023-04-22T07:28:54.837Z,14.04
2023-04-22T07:31:21.921Z,14.22
2023-04-22T07:33:48.984Z,14.34
2023-04-22T07:36:16.026Z,14.30
2023-04-22T07:38:43.004Z,14.55
2023-04-22T07:41:10.101Z,14.70
2023-04-22T07:43:40.175Z,14.99
2023-04-22T07:46:07.477Z,14.87
2023-04-22T07:48:34.646Z,15.15
2023-04-22T07:51:01.890Z,15.18
2023-04-22T07:53:29.238Z,15.15
2023-04-22T07:55:56.657Z,15.05
2023-04-22T07:58:25.125Z,15.04
2023-04-22T08:00:52.524Z,15.24
2023-04-22T08:03:20.197Z,15.34
2023-04-22T08:05:47.753Z,15.33
2023-04-22T08:08:15.622Z,15.70
2023-04-22T08:10:46.087Z,15.62
2023-04-22T08:13:13.125Z,15.84
2023-04-22T08:15:40.315Z,15.67
2023-04-22T08:18:10.864Z,15.06
2023-04-22T08:20:38.649Z,14.70
2023-04-22T08:23:07.177Z,15.34
2023-04-22T08:25:35.257Z,15.14
2023-04-22T08:28:02.260Z,15.69
2023-04-22T08:30:29.482Z,15.71
2023-04-22T08:32:56.471Z,16.04
2023-04-22T08:35:24.254Z,16.02
2023-04-22T08:37:51.308Z,16.34
2023-04-22T08:40:18.408Z,16.46
2023-04-22T08:42:47.129Z,16.39
2023-04-22T08:45:16.064Z,16.66
2023-04-22T08:47:43.521Z,16.73
2023-04-22T08:50:14.014Z,16.80
2023-04-22T08:52:42.745Z,16.93
2023-04-22T08:55:09.748Z,17.07
2023-04-22T08:57:39.043Z,16.85
2023-04-22T09:00:08.769Z,16.95
2023-04-22T09:02:37.649Z,16.90
2023-04-22T09:05:07.163Z,16.97
2023-04-22T09:07:35.545Z,17.09
2023-04-22T09:10:02.925Z,17.20
2023-04-22T09:12:31.318Z,17.26
2023-04-22T09:14:58.482Z,17.40
2023-04-22T09:17:33.769Z,17.80
2023-04-22T09:20:02.445Z,18.14
2023-04-22T09:22:47.229Z,18.50
2023-04-22T09:25:22.591Z,18.63
2023-04-22T09:27:55.075Z,18.55
2023-04-22T09:30:29.749Z,18.60
2023-04-22T09:32:59.531Z,18.49
2023-04-22T09:35:32.181Z,18.88
2023-04-22T09:38:02.279Z,19.15
2023-04-22T09:40:31.100Z,19.64
2023-04-22T09:43:03.388Z,19.99
2023-04-22T09:45:36.650Z,19.81
2023-04-22T09:48:20.167Z,20.29
2023-04-22T09:50:50.150Z,20.31
2023-04-22T09:53:21.890Z,19.99
2023-04-22T09:55:54.677Z,20.06
2023-04-22T09:58:27.866Z,19.58
2023-04-22T10:00:58.045Z,18.70
2023-04-22T10:03:25.261Z,18.31
2023-04-22T10:05:52.611Z,17.89
2023-04-22T10:08:19.693Z,17.48
2023-04-22T10:10:46.978Z,16.83
2023-04-22T10:13:14.280Z,17.08
2023-04-22T10:15:56.775Z,17.47
2023-04-22T10:18:26.917Z,17.37
2023-04-22T10:20:55.990Z,17.12
2023-04-22T10:23:24.692Z,16.97
2023-04-22T10:25:56.167Z,17.20
2023-04-22T10:28:24.641Z,17.51
2023-04-22T10:30:52.053Z,17.24
2023-04-22T10:33:23.870Z,17.25
2023-04-22T10:36:20.161Z,17.43
2023-04-22T10:38:50.208Z,17.50
2023-04-22T10:41:22.370Z,17.53
2023-04-22T10:43:58.633Z,17.55
2023-04-22T10:46:37.189Z,17.55
2023-04-22T10:49:15.833Z,17.68
2023-04-22T10:51:44.283Z,17.97
2023-04-22T10:54:37.651Z,17.83
2023-04-22T10:57:10.300Z,17.97
2023-04-22T10:59:58.573Z,17.77
2023-04-22T11:02:26.850Z,17.96
2023-04-22T11:05:25.323Z,17.73
2023-04-22T11:07:54.184Z,17.74
2023-04-22T11:10:51.298Z,17.52
2023-04-22T11:13:23.646Z,17.61
2023-04-22T11:15:54.262Z,17.91
2023-04-22T11:18:24.142Z,17.77
2023-04-22T11:20:52.491Z,17.83
2023-04-22T11:23:25.931Z,17.32
2023-04-22T11:26:01.474Z,17.12
2023-04-22T11:49:21.224Z,16.88
2023-04-22T11:52:40.020Z,16.89
2023-04-22T11:55:11.434Z,17.04
2023-04-22T11:57:38.650Z,17.13
2023-04-22T12:00:33.323Z,17.02
2023-04-22T12:03:16.995Z,16.80
2023-04-22T12:05:52.213Z,16.62
2023-04-22T12:08:31.645Z,16.30
2023-04-22T12:11:02.215Z,16.57
2023-04-22T12:13:31.536Z,16.56
2023-04-22T12:16:09.893Z,16.43
2023-04-22T12:18:38.930Z,16.48
2023-04-22T12:21:10.944Z,16.61
2023-04-22T12:23:46.994Z,16.68
2023-04-22T12:26:15.520Z,16.75
2023-04-22T12:28:44.124Z,16.57
2023-04-22T12:31:11.780Z,16.69
2023-04-22T12:33:39.396Z,16.88
2023-04-22T12:36:07.610Z,17.04
2023-04-22T12:38:38.636Z,16.79
2023-04-22T12:41:11.451Z,16.50
2023-04-22T12:43:39.533Z,16.56
2023-04-22T12:46:08.791Z,16.40
2023-04-22T12:48:39.698Z,16.88
2023-04-22T12:51:07.252Z,17.10
2023-04-22T12:53:34.819Z,17.08
2023-04-22T12:56:02.259Z,16.95
2023-04-22T12:58:29.513Z,16.98
2023-04-22T13:00:56.794Z,16.98
2023-04-22T13:03:24.372Z,17.02
2023-04-22T13:05:53.175Z,16.72
2023-04-22T13:08:20.533Z,16.50
2023-04-22T13:10:48.762Z,16.75
2023-04-22T13:13:18.451Z,16.82
2023-04-22T13:16:03.607Z,16.90
2023-04-22T13:18:31.245Z,16.86
2023-04-22T13:20:58.642Z,16.87
2023-04-22T13:23:26.119Z,16.67
2023-04-22T13:25:53.811Z,16.72
2023-04-22T13:28:20.898Z,16.20
2023-04-22T13:30:47.916Z,16.44
2023-04-22T13:33:15.058Z,16.52
2023-04-22T13:35:42.807Z,16.76
2023-04-22T13:38:09.800Z,16.86
2023-04-22T13:40:36.911Z,17.06
2023-04-22T13:43:04.426Z,17.20
2023-04-22T13:45:31.648Z,17.35
2023-04-22T13:47:58.797Z,17.44
2023-04-22T13:50:25.888Z,17.53
2023-04-22T13:52:53.548Z,17.92
2023-04-22T13:55:20.785Z,18.33
2023-04-22T13:57:48.105Z,18.75
2023-04-22T14:00:15.310Z,19.02
2023-04-22T14:02:42.350Z,19.07
2023-04-22T14:05:10.634Z,19.17
2023-04-22T14:07:37.827Z,18.72
2023-04-22T14:10:07.979Z,18.33
2023-04-22T14:12:35.215Z,18.31
2023-04-22T14:15:02.254Z,18.34
2023-04-22T14:17:32.363Z,18.28
2023-04-22T14:19:59.705Z,18.61
2023-04-22T14:22:26.810Z,18.22
2023-04-22T14:24:54.315Z,19.12
2023-04-22T14:27:21.237Z,19.08
2023-04-22T14:29:52.438Z,19.49
2023-04-22T14:32:20.714Z,19.66
2023-04-22T14:34:48.461Z,19.55
2023-04-22T14:37:15.629Z,19.42
2023-04-22T14:39:42.848Z,19.12
2023-04-22T14:42:10.126Z,19.23
2023-04-22T14:44:37.125Z,19.41
2023-04-22T14:47:04.395Z,19.33
2023-04-22T14:49:33.265Z,19.47
2023-04-22T14:52:01.602Z,19.73
2023-04-22T14:54:28.966Z,19.79
2023-04-22T14:56:56.317Z,19.94
2023-04-22T14:59:23.460Z,20.28
2023-04-22T15:01:51.238Z,20.38
2023-04-22T15:04:19.193Z,20.64
2023-04-22T15:06:46.396Z,20.85
2023-04-22T15:09:13.609Z,20.41
2023-04-22T15:11:43.725Z,20.35
2023-04-22T15:14:10.799Z,19.88
2023-04-22T15:16:37.904Z,19.80
2023-04-22T15:19:05.582Z,19.23
2023-04-22T15:21:33.354Z,18.45
2023-04-22T15:24:00.303Z,18.30
2023-04-22T15:26:27.954Z,18.32
2023-04-22T15:28:55.593Z,18.35
2023-04-22T15:31:23.012Z,18.38
2023-04-22T15:33:51.194Z,18.41
2023-04-22T15:36:21.036Z,19.15
2023-04-22T15:38:48.033Z,20.33
2023-04-22T15:41:15.952Z,20.65
2023-04-22T15:43:43.369Z,21.42
2023-04-22T15:46:10.662Z,22.54
2023-04-22T15:48:37.960Z,23.42
2023-04-22T15:51:04.934Z,24.67
2023-04-22T15:53:32.006Z,25.03
2023-04-22T15:55:58.947Z,25.08
2023-04-22T15:58:25.975Z,24.56
2023-04-22T16:00:53.088Z,24.13
2023-04-22T16:03:21.044Z,22.45
2023-04-22T16:05:48.082Z,20.58
2023-04-22T16:08:16.144Z,19.65
2023-04-22T16:10:43.216Z,18.91
2023-04-22T16:13:11.240Z,18.56
2023-04-22T16:15:38.276Z,19.36
2023-04-22T16:18:05.852Z,19.94
2023-04-22T16:20:32.890Z,20.17
2023-04-22T16:23:00.341Z,20.96
2023-04-22T16:25:28.130Z,21.17
2023-04-22T16:27:55.654Z,22.02
2023-04-22T16:30:22.997Z,22.69
2023-04-22T16:32:50.637Z,23.59
2023-04-22T16:35:17.995Z,24.05
2023-04-22T16:37:44.954Z,23.78
2023-04-22T16:40:12.361Z,23.59
2023-04-22T16:42:39.522Z,23.25
2023-04-22T16:45:07.938Z,22.36
2023-04-22T16:47:37.696Z,20.84
2023-04-22T16:50:05.388Z,19.18
2023-04-22T16:52:32.925Z,18.45
2023-04-22T16:55:00.487Z,17.96
2023-04-22T16:57:27.647Z,17.05
2023-04-22T16:59:54.884Z,16.88
2023-04-22T17:02:22.555Z,16.34
2023-04-22T17:04:51.096Z,16.21
2023-04-22T17:07:18.319Z,16.10
2023-04-22T17:09:45.238Z,15.79
2023-04-22T17:12:12.466Z,15.57
2023-04-22T17:14:39.366Z,15.34
2023-04-22T17:17:06.503Z,14.70
2023-04-22T17:19:33.753Z,15.01
2023-04-22T17:22:01.939Z,14.73
2023-04-22T17:24:47.753Z,14.67
2023-04-22T17:27:15.840Z,14.54
2023-04-22T17:29:43.217Z,14.35
2023-04-22T17:32:10.389Z,14.49
2023-04-22T17:34:37.388Z,14.19
2023-04-22T17:37:04.313Z,14.13
2023-04-22T17:39:32.517Z,14.11
2023-04-22T17:41:59.522Z,14.02
2023-04-22T17:44:26.546Z,13.92
2023-04-22T17:46:53.520Z,14.06
2023-04-22T17:49:20.662Z,13.98
2023-04-22T17:51:47.668Z,14.00
2023-04-22T17:54:15.089Z,13.89
2023-04-22T17:56:42.196Z,13.81
2023-04-22T17:59:11.401Z,13.67
2023-04-22T18:01:41.134Z,13.64
2023-04-22T18:04:08.374Z,13.50
2023-04-22T18:06:36.324Z,13.63
2023-04-22T18:09:07.025Z,13.59
2023-04-22T18:11:34.394Z,13.51
2023-04-22T18:14:01.338Z,13.32
2023-04-22T18:16:31.675Z,13.16
2023-04-22T18:19:02.230Z,13.36
2023-04-22T18:21:49.588Z,13.40
2023-04-22T18:24:20.364Z,13.38
2023-04-22T18:26:48.839Z,13.18
2023-04-22T18:29:16.538Z,13.37
2023-04-22T18:31:43.641Z,13.32
2023-04-22T18:34:13.345Z,13.24
2023-04-22T18:36:49.401Z,13.25
2023-04-22T18:39:21.506Z,13.14
2023-04-22T18:41:49.385Z,13.11
2023-04-22T18:44:16.408Z,13.07
2023-04-22T18:46:43.533Z,12.92
2023-04-22T18:49:10.512Z,12.92
2023-04-22T18:51:39.269Z,12.90
2023-04-22T18:54:08.004Z,12.80
2023-04-22T18:56:34.899Z,12.89
2023-04-22T18:59:01.993Z,12.93
2023-04-22T19:01:29.076Z,12.86
2023-04-22T19:03:56.301Z,12.87
2023-04-22T19:06:23.565Z,12.78
2023-04-22T19:08:52.911Z,12.49
2023-04-22T19:11:19.927Z,12.45
2023-04-22T19:13:46.907Z,12.28
2023-04-22T19:16:14.063Z,11.85
2023-04-22T19:18:42.518Z,12.17
2023-04-22T19:21:09.636Z,12.15
2023-04-22T19:23:37.042Z,11.28
2023-04-22T19:26:04.410Z,12.09
2023-04-22T19:28:31.420Z,12.09
2023-04-22T19:31:00.277Z,11.91
2023-04-22T19:33:27.559Z,11.92
2023-04-22T19:35:54.397Z,11.82
2023-04-22T19:38:23.220Z,11.77
2023-04-22T19:40:50.922Z,11.59
2023-04-22T19:43:19.334Z,11.74
2023-04-22T19:45:46.599Z,11.64
2023-04-22T19:48:14.308Z,11.62
2023-04-22T19:50:43.640Z,11.53
2023-04-22T19:53:10.868Z,11.59
2023-04-22T19:55:38.702Z,11.41
2023-04-22T19:58:05.969Z,11.21
2023-04-22T20:00:33.204Z,11.11
2023-04-22T20:03:00.471Z,11.19
2023-04-22T20:05:28.003Z,11.04
2023-04-22T20:07:59.770Z,11.20
2023-04-22T20:10:27.436Z,11.22
2023-04-22T20:12:54.912Z,11.18
2023-04-22T20:15:22.570Z,11.19
2023-04-22T20:17:50.297Z,11.02
2023-04-22T20:20:17.859Z,11.04
2023-04-22T20:22:45.964Z,11.04
2023-04-22T20:25:19.726Z,10.73
2023-04-22T20:27:47.075Z,10.94
2023-04-22T20:30:14.713Z,10.78
2023-04-22T20:32:42.442Z,10.76
2023-04-22T20:35:15.012Z,10.83
2023-04-22T20:37:42.966Z,10.81
2023-04-22T20:40:11.741Z,10.83
2023-04-22T20:42:39.197Z,10.83
2023-04-22T20:45:07.120Z,9.73
2023-04-22T20:47:35.405Z,10.75
2023-04-22T20:50:04.437Z,10.65
2023-04-22T20:52:32.088Z,10.66
2023-04-22T20:54:59.686Z,10.51
2023-04-22T20:57:26.683Z,10.54
2023-04-22T20:59:54.958Z,10.51
2023-04-22T21:02:22.292Z,10.39
2023-04-22T21:04:50.442Z,10.41
2023-04-22T21:07:21.368Z,10.35
2023-04-22T21:09:48.702Z,10.32
2023-04-22T21:12:18.301Z,10.26
2023-04-22T21:14:46.435Z,10.05
2023-04-22T21:17:25.181Z,10.31
2023-04-22T21:19:54.928Z,10.28
2023-04-22T21:22:24.737Z,10.24
2023-04-22T21:24:52.988Z,10.23
2023-04-22T21:27:22.164Z,10.12
2023-04-22T21:29:49.976Z,10.16
2023-04-22T21:32:20.156Z,10.20
2023-04-22T21:34:47.720Z,10.23
2023-04-22T21:37:15.947Z,10.14
2023-04-22T21:39:43.331Z,10.19
2023-04-22T21:42:10.731Z,10.16
2023-04-22T21:44:38.314Z,10.18
2023-04-22T21:47:06.518Z,10.15
2023-04-22T21:49:33.732Z,10.08
2023-04-22T21:52:01.140Z,10.12
2023-04-22T21:54:28.605Z,9.98
2023-04-22T21:56:56.944Z,10.09
2023-04-22T21:59:24.856Z,10.02
2023-04-22T22:01:52.352Z,10.10
2023-04-22T22:04:19.641Z,9.99
2023-04-22T22:06:46.943Z,10.06
2023-04-22T22:09:14.379Z,10.00
2023-04-22T22:11:41.611Z,10.02
2023-04-22T22:14:08.694Z,10.01
2023-04-22T22:16:35.958Z,9.95
2023-04-22T22:19:04.532Z,9.92
2023-04-22T22:21:33.373Z,9.94
2023-04-22T22:24:00.534Z,9.94
2023-04-22T22:26:28.032Z,9.91
2023-04-22T22:28:55.426Z,9.90
2023-04-22T22:31:22.470Z,9.89
2023-04-22T22:33:49.650Z,9.81
2023-04-22T22:36:16.556Z,9.83
2023-04-22T22:38:44.886Z,9.81
2023-04-22T22:41:11.929Z,9.78
2023-04-22T22:43:40.218Z,9.55
2023-04-22T22:46:07.527Z,9.73
2023-04-22T22:48:34.763Z,9.70
2023-04-22T22:51:01.855Z,9.67
2023-04-22T22:53:28.811Z,9.63
2023-04-22T22:55:55.853Z,9.61
2023-04-22T22:58:22.742Z,9.59
2023-04-22T23:00:49.882Z,9.57
2023-04-22T23:03:19.275Z,9.39
2023-04-22T23:05:46.973Z,9.52
2023-04-22T23:08:14.765Z,9.48
2023-04-22T23:10:42.042Z,9.46
2023-04-22T23:13:08.894Z,9.45
2023-04-22T23:15:36.547Z,9.41
2023-04-22T23:18:03.899Z,9.41
2023-04-22T23:20:31.717Z,9.37
2023-04-22T23:23:00.602Z,9.34
2023-04-22T23:25:28.417Z,9.34
2023-04-22T23:27:56.106Z,9.30
2023-04-22T23:30:23.577Z,9.26
2023-04-22T23:32:52.352Z,8.85
2023-04-22T23:35:20.575Z,9.20
2023-04-22T23:37:50.813Z,9.17
2023-04-22T23:40:18.122Z,9.12
2023-04-22T23:42:45.047Z,8.76
2023-04-22T23:45:12.276Z,9.09
2023-04-22T23:47:39.801Z,9.06
2023-04-22T23:50:07.617Z,8.56
2023-04-22T23:52:40.663Z,9.01
2023-04-22T23:55:10.284Z,8.99
2023-04-22T23:57:38.187Z,8.98
